createdAt,value
2019-02-26T00:00:29.342Z,3.83
2019-02-26T00:05:23.868Z,3.53
2019-02-26T00:10:16.376Z,3.13
2019-02-26T00:15:09.877Z,3.50
2019-02-26T00:20:05.592Z,3.90
2019-02-26T00:24:56.932Z,3.13
2019-02-26T00:29:51.373Z,3.03
2019-02-26T00:34:43.876Z,3.03
2019-02-26T00:39:37.277Z,3.30
2019-02-26T00:44:32.223Z,2.80
2019-02-26T00:49:25.812Z,3.13
2019-02-26T00:54:20.223Z,2.73
2019-02-26T00:59:10.792Z,3.67
2019-02-26T01:04:04.171Z,3.67
2019-02-26T01:08:58.994Z,3.33
2019-02-26T01:13:52.743Z,4.60
2019-02-26T01:18:45.124Z,4.03
2019-02-26T01:23:37.631Z,3.60
2019-02-26T01:28:31.048Z,3.70
2019-02-26T01:33:25.072Z,3.70
2019-02-26T01:38:18.818Z,4.03
2019-02-26T01:43:11.246Z,3.60
2019-02-26T01:48:06.419Z,3.97
2019-02-26T01:52:59.119Z,3.90
2019-02-26T01:57:51.681Z,3.67
2019-02-26T02:02:45.332Z,3.33
2019-02-26T02:07:38.715Z,3.33
2019-02-26T02:12:34.265Z,4.03
2019-02-26T02:17:25.435Z,3.80
2019-02-26T02:22:19.579Z,3.40
2019-02-26T02:27:15.006Z,3.70
2019-02-26T02:32:07.749Z,3.40
2019-02-26T02:36:59.596Z,3.60
2019-02-26T02:41:54.981Z,3.53
2019-02-26T02:46:46.645Z,3.57
2019-02-26T02:51:39.733Z,3.43
2019-02-26T02:56:34.076Z,4.10
2019-02-26T03:01:28.640Z,3.20
2019-02-26T03:06:20.174Z,3.40
2019-02-26T03:11:13.574Z,3.10
2019-02-26T03:16:06.935Z,3.30
2019-02-26T03:21:02.581Z,3.27
2019-02-26T03:25:55.165Z,3.40
2019-02-26T03:35:50.596Z,3.20
2019-02-26T03:40:43.970Z,3.17
2019-02-26T03:45:37.659Z,3.50
2019-02-26T03:50:31.307Z,3.23
2019-02-26T03:55:24.721Z,3.27
2019-02-26T04:00:20.039Z,3.67
2019-02-26T04:05:11.842Z,3.50
2019-02-26T04:10:05.205Z,3.23
2019-02-26T04:14:58.883Z,3.10
2019-02-26T04:19:52.346Z,2.90
2019-02-26T04:24:45.949Z,3.40
2019-02-26T04:29:59.035Z,4.07
2019-02-26T04:35:00.485Z,3.70
2019-02-26T04:40:11.864Z,3.20
2019-02-26T04:45:16.551Z,3.63
2019-02-26T04:50:10.282Z,3.60
2019-02-26T04:55:03.982Z,3.50
2019-02-26T04:59:59.140Z,3.23
2019-02-26T05:04:50.802Z,3.23
2019-02-26T05:09:44.394Z,3.10
2019-02-26T05:14:38.087Z,3.07
2019-02-26T05:19:31.758Z,3.13
2019-02-26T05:24:26.282Z,3.83
2019-02-26T05:29:18.832Z,3.47
2019-02-26T05:39:18.798Z,2.60
2019-02-26T05:44:10.775Z,3.27
2019-02-26T05:49:03.577Z,3.07
2019-02-26T05:53:56.145Z,3.30
2019-02-26T05:58:49.557Z,3.20
2019-02-26T06:03:44.250Z,3.10
2019-02-26T06:08:39.230Z,3.17
2019-02-26T06:13:31.556Z,3.07
2019-02-26T06:18:23.391Z,3.20
2019-02-26T06:23:16.748Z,2.73
2019-02-26T06:28:12.691Z,3.10
2019-02-26T06:33:04.306Z,3.70
2019-02-26T06:37:57.259Z,3.13
2019-02-26T06:42:50.634Z,3.53
2019-02-26T06:47:45.527Z,3.23
2019-02-26T06:52:39.954Z,3.00
2019-02-26T06:57:31.334Z,3.23
2019-02-26T07:02:28.279Z,3.37
2019-02-26T07:07:18.135Z,3.37
2019-02-26T07:12:11.495Z,3.33
2019-02-26T07:17:05.157Z,3.50
2019-02-26T07:21:58.844Z,3.00
2019-02-26T07:26:52.209Z,3.13
2019-02-26T07:31:47.232Z,3.20
2019-02-26T07:36:41.030Z,3.13
2019-02-26T07:41:32.972Z,3.03
2019-02-26T07:46:26.686Z,3.30
2019-02-26T07:51:20.064Z,3.33
2019-02-26T07:56:13.726Z,3.13
2019-02-26T08:01:07.100Z,3.30
2019-02-26T08:06:04.818Z,3.30
2019-02-26T08:10:53.861Z,3.33
2019-02-26T08:15:47.234Z,3.40
2019-02-26T08:20:40.930Z,3.60
2019-02-26T08:25:34.616Z,3.10
2019-02-26T08:30:27.986Z,3.33
2019-02-26T08:35:21.365Z,3.57
2019-02-26T08:40:14.964Z,3.60
2019-02-26T08:45:10.032Z,3.47
2019-02-26T08:50:04.714Z,3.63
2019-02-26T08:54:57.039Z,3.53
2019-02-26T08:59:52.081Z,3.57
2019-02-26T09:04:45.068Z,6.63
2019-02-26T09:09:37.180Z,4.77
2019-02-26T09:14:34.448Z,4.50
2019-02-26T09:19:25.275Z,4.00
2019-02-26T09:24:18.269Z,3.07
2019-02-26T09:29:12.714Z,2.40
2019-02-26T09:34:05.006Z,1.83
2019-02-26T09:38:58.377Z,2.43
2019-02-26T09:43:52.054Z,2.37
2019-02-26T09:48:46.157Z,2.33
2019-02-26T09:53:38.793Z,2.50
2019-02-26T09:58:32.195Z,2.30
2019-02-26T10:03:27.263Z,3.07
2019-02-26T10:08:19.972Z,2.47
2019-02-26T10:13:13.024Z,2.90
2019-02-26T10:18:09.171Z,2.90
2019-02-26T10:23:03.269Z,2.70
2019-02-26T10:27:54.056Z,3.20
2019-02-26T10:32:47.711Z,3.10
2019-02-26T10:37:45.300Z,2.90
2019-02-26T10:42:39.878Z,3.30
2019-02-26T10:47:32.736Z,3.20
2019-02-26T10:52:26.447Z,2.90
2019-02-26T10:57:18.904Z,3.27
2019-02-26T11:02:14.465Z,3.13
2019-02-26T11:07:08.756Z,3.17
2019-02-26T11:12:00.826Z,3.20
2019-02-26T11:16:53.035Z,3.20
2019-02-26T11:21:47.426Z,2.57
2019-02-26T11:26:40.966Z,2.90
2019-02-26T11:31:33.447Z,2.90
2019-02-26T11:36:28.104Z,3.23
2019-02-26T11:41:20.212Z,3.37
2019-02-26T11:46:13.618Z,3.30
2019-02-26T11:51:07.293Z,3.50
2019-02-26T11:56:02.048Z,3.30
2019-02-26T12:00:57.353Z,3.03
2019-02-26T12:05:50.194Z,3.03
2019-02-26T12:10:43.887Z,3.17
2019-02-26T12:15:39.891Z,2.90
2019-02-26T12:20:31.254Z,3.27
2019-02-26T12:25:24.961Z,2.87
2019-02-26T12:30:20.702Z,3.23
2019-02-26T12:35:14.767Z,3.33
2019-02-26T12:40:06.413Z,3.10
2019-02-26T12:45:01.919Z,2.90
2019-02-26T12:49:53.377Z,2.60
2019-02-26T12:54:47.058Z,2.83
2019-02-26T12:59:40.744Z,2.90
2019-02-26T13:04:37.382Z,3.10
2019-02-26T13:09:27.801Z,2.63
2019-02-26T13:14:21.191Z,3.00
2019-02-26T13:19:18.315Z,2.97
2019-02-26T13:24:13.921Z,2.70
2019-02-26T13:29:01.336Z,2.90
2019-02-26T13:33:54.761Z,3.17
2019-02-26T13:38:49.316Z,2.43
2019-02-26T13:43:41.767Z,2.90
2019-02-26T13:48:35.158Z,2.43
2019-02-26T13:53:28.843Z,2.77
2019-02-26T13:58:22.515Z,3.07
2019-02-26T14:03:15.891Z,3.10
2019-02-26T14:08:09.585Z,2.50
2019-02-26T14:13:03.896Z,2.80
2019-02-26T14:17:56.973Z,2.57
2019-02-26T14:22:50.659Z,2.70
2019-02-26T14:27:44.340Z,2.83
2019-02-26T14:32:37.737Z,2.70
2019-02-26T14:37:31.396Z,3.07
2019-02-26T14:42:24.782Z,2.90
2019-02-26T14:47:18.540Z,2.77
2019-02-26T14:52:11.941Z,3.57
2019-02-26T14:57:06.173Z,3.50
2019-02-26T15:01:59.537Z,3.43
2019-02-26T15:06:53.217Z,3.80
2019-02-26T15:11:46.908Z,3.20
2019-02-26T15:16:40.577Z,3.47
2019-02-26T15:21:33.931Z,3.70
2019-02-26T15:26:27.367Z,3.80
2019-02-26T15:31:21.041Z,3.43
2019-02-26T15:36:14.728Z,3.63
2019-02-26T15:41:08.113Z,2.60
2019-02-26T15:46:01.507Z,2.93
2019-02-26T15:50:54.887Z,2.40
2019-02-26T15:55:48.571Z,2.37
2019-02-26T16:00:41.945Z,3.33
2019-02-26T16:05:35.671Z,3.50
2019-02-26T16:10:29.286Z,4.07
2019-02-26T16:15:22.676Z,3.50
2019-02-26T16:20:17.247Z,3.83
2019-02-26T16:25:10.711Z,3.80
2019-02-26T16:30:04.764Z,3.33
2019-02-26T16:34:58.344Z,3.70
2019-02-26T16:39:52.055Z,4.03
2019-02-26T16:44:45.861Z,3.90
2019-02-26T16:49:39.235Z,3.60
2019-02-26T16:54:32.604Z,4.13
2019-02-26T16:59:26.150Z,3.50
2019-02-26T17:04:19.539Z,10.10
2019-02-26T17:09:13.231Z,12.27
2019-02-26T17:14:06.625Z,12.90
2019-02-26T17:19:00.328Z,14.83
2019-02-26T17:23:53.973Z,15.23
2019-02-26T17:28:47.735Z,17.60
2019-02-26T17:33:41.150Z,17.20
2019-02-26T17:38:34.772Z,18.63
2019-02-26T17:43:28.432Z,18.67
2019-02-26T17:48:21.847Z,19.47
2019-02-26T17:53:15.235Z,19.50
2019-02-26T17:58:10.571Z,20.17
2019-02-26T18:03:06.370Z,20.10
2019-02-26T18:07:55.753Z,20.23
2019-02-26T18:12:49.143Z,19.57
2019-02-26T18:17:42.695Z,20.33
2019-02-26T18:22:36.462Z,20.03
2019-02-26T18:27:30.569Z,20.23
2019-02-26T18:32:23.736Z,22.27
2019-02-26T18:37:20.221Z,20.50
2019-02-26T18:42:11.158Z,19.80
2019-02-26T18:47:04.807Z,20.37
2019-02-26T18:51:57.948Z,21.53
2019-02-26T18:56:51.580Z,21.37
2019-02-26T19:01:44.973Z,21.93
2019-02-26T19:06:38.376Z,20.40
2019-02-26T19:11:31.783Z,21.10
2019-02-26T19:16:25.168Z,21.80
2019-02-26T19:21:21.525Z,20.17
2019-02-26T19:26:13.802Z,20.23
2019-02-26T19:31:09.333Z,20.10
2019-02-26T19:35:59.239Z,21.93
2019-02-26T19:40:52.717Z,21.67
2019-02-26T19:45:46.307Z,21.20
2019-02-26T19:50:39.683Z,20.77
2019-02-26T19:55:33.999Z,21.40
2019-02-26T20:00:27.389Z,21.93
2019-02-26T20:05:20.776Z,23.03
2019-02-26T20:10:15.178Z,22.63
2019-02-26T20:15:08.016Z,21.40
2019-02-26T20:20:04.930Z,22.30
2019-02-26T20:24:54.874Z,23.07
2019-02-26T20:29:48.250Z,25.03
2019-02-26T20:34:41.678Z,22.30
2019-02-26T20:39:35.278Z,23.57
2019-02-26T20:44:28.980Z,24.03
2019-02-26T20:49:22.643Z,24.23
2019-02-26T20:54:16.036Z,24.13
2019-02-26T20:59:09.725Z,23.87
2019-02-26T21:04:03.455Z,22.43
2019-02-26T21:08:57.158Z,24.37
2019-02-26T21:13:50.559Z,22.53
2019-02-26T21:18:44.150Z,22.97
2019-02-26T21:23:37.543Z,22.77
2019-02-26T21:28:33.543Z,23.60
2019-02-26T21:33:24.612Z,23.17
2019-02-26T21:38:18.318Z,22.83
2019-02-26T21:43:11.703Z,22.17
2019-02-26T21:48:05.135Z,24.23
2019-02-26T21:52:59.852Z,23.87
2019-02-26T21:57:54.500Z,21.43
2019-02-26T22:02:45.495Z,11.93
2019-02-26T22:07:39.183Z,8.17
2019-02-26T22:12:32.557Z,5.87
2019-02-26T22:17:26.234Z,4.20
2019-02-26T22:22:19.610Z,3.83
2019-02-26T22:27:13.014Z,3.30
2019-02-26T22:32:06.380Z,2.87
2019-02-26T22:37:00.054Z,3.50
2019-02-26T22:41:53.433Z,2.50
2019-02-26T22:46:46.832Z,2.07
2019-02-26T22:51:40.227Z,2.03
2019-02-26T22:56:33.864Z,1.73
2019-02-26T23:01:36.684Z,1.20
2019-02-26T23:06:29.524Z,1.20
2019-02-26T23:11:22.814Z,0.97
2019-02-26T23:16:18.451Z,1.37
2019-02-26T23:21:10.285Z,1.10
2019-02-26T23:26:03.772Z,1.33
2019-02-26T23:30:59.648Z,1.23
2019-02-26T23:35:54.872Z,1.40
2019-02-26T23:40:44.097Z,1.63
2019-02-26T23:45:37.585Z,2.43
2019-02-26T23:50:31.184Z,3.40
2019-02-26T23:55:24.596Z,3.60
